»·PEaware :: N449PT L52-L88

N449PT :: L52-L88

FLIGHT INFORMATION

Flight Status: Arrived
Operator: Privately registered:
United States
More flights under this callsign
Pilot: Hayden W. (43076)
Aircraft: CESSNA 172 SKYHAWK
(C172)
More flights by this aircraft type
Origin: L52 Oceano Co
United States
Destination: L88 New Cuyama
United States
More flights between these airports :: More routes between these airports
Route:
File this flight plan on PilotEdge
Remarks: CAT 1 rating
Altitude:
(Current/Filed)
5,500ft
Speed:
(Current/Filed)
100kts
Departed: 04-Nov-23 09:19 PM
Arrived: 04-Nov-23 09:55 PM
Distance/Time
Traveled:
47nm/0:36
Distance/Time
To Go:
Arrived

Flight Plot

Page will automatically refresh every two minutes.


Map Options




Map Legend


Flown Route
Filed Route
Departure Airport
Arrival Airport
Navaid (VOR, NDB)
Fix

Horizontal Profiles

Position Reports

Time Latitude Longitude Heading Altitude Ground
Speed
04-Nov-23 21:13 35.102153 -120.622308 16 17ft 0kts
04-Nov-23 21:14 35.102079 -120.622188 162 17ft 0kts
04-Nov-23 21:15 35.101683 -120.622333 185 18ft 1kts
04-Nov-23 21:16 35.099977 -120.619555 143 16ft 8kts
04-Nov-23 21:17 35.100214 -120.619794 306 16ft 19kts
04-Nov-23 21:18 35.111444 -120.629496 70 571ft 92kts
04-Nov-23 21:19 35.107675 -120.595383 107 1256ft 107kts
04-Nov-23 21:20 35.102010 -120.562275 100 2132ft 95kts
04-Nov-23 21:21 35.095934 -120.531144 117 3004ft 82kts
04-Nov-23 21:22 35.091049 -120.500822 100 3694ft 94kts
04-Nov-23 21:23 35.086357 -120.469773 96 4419ft 94kts
04-Nov-23 21:24 35.081482 -120.438672 100 5130ft 88kts
04-Nov-23 21:25 35.076136 -120.407797 103 5452ft 107kts
04-Nov-23 21:26 35.070953 -120.373019 108 5506ft 105kts
04-Nov-23 21:27 35.063301 -120.338020 98 5417ft 111kts
04-Nov-23 21:28 35.051302 -120.304955 102 5447ft 104kts
04-Nov-23 21:29 35.046497 -120.269092 100 5389ft 108kts
04-Nov-23 21:30 35.042142 -120.233589 97 5489ft 104kts
04-Nov-23 21:31 35.037871 -120.197730 96 5488ft 106kts
04-Nov-23 21:32 35.033014 -120.161083 100 5437ft 108kts
04-Nov-23 21:33 35.029714 -120.125665 92 5551ft 107kts
04-Nov-23 21:34 35.021684 -120.088883 106 5471ft 113kts
04-Nov-23 21:35 35.014751 -120.051395 105 5456ft 110kts
04-Nov-23 21:36 35.005803 -120.015563 105 5504ft 112kts
04-Nov-23 21:37 34.998712 -119.978640 107 5503ft 112kts
04-Nov-23 21:38 34.990921 -119.941545 103 5499ft 113kts
04-Nov-23 21:39 34.984136 -119.904160 103 5492ft 112kts
04-Nov-23 21:40 34.974157 -119.868084 112 5016ft 113kts
04-Nov-23 21:41 34.963579 -119.832152 110 4288ft 112kts
04-Nov-23 21:42 34.952773 -119.796486 111 3554ft 111kts
04-Nov-23 21:43 34.945842 -119.760692 101 3158ft 105kts
04-Nov-23 21:44 34.940106 -119.726925 104 3102ft 101kts
04-Nov-23 21:45 34.928896 -119.696938 98 3047ft 101kts
04-Nov-23 21:46 34.929644 -119.669835 8 2948ft 85kts
04-Nov-23 21:47 34.946379 -119.683817 294 2875ft 81kts
04-Nov-23 21:48 34.957759 -119.712583 312 3205ft 107kts
04-Nov-23 21:49 34.945541 -119.728561 147 3242ft 98kts
04-Nov-23 21:50 34.929437 -119.702102 115 3239ft 99kts
04-Nov-23 21:51 34.917578 -119.672567 110 3287ft 97kts
04-Nov-23 21:52 34.925013 -119.652530 321 2887ft 84kts
04-Nov-23 21:53 34.936510 -119.676996 296 2303ft 71kts
04-Nov-23 21:54 34.941626 -119.689645 296 2160ft 25kts
04-Nov-23 21:55 34.942906 -119.690976 74 2150ft 3kts
04-Nov-23 21:56 34.942929 -119.690856 76 2150ft 0kts
04-Nov-23 21:57 34.942929 -119.690856 76 2150ft 0kts
04-Nov-23 21:58 34.942929 -119.690856 76 2150ft 0kts
04-Nov-23 21:59 34.942929 -119.690856 76 2150ft 0kts
04-Nov-23 22:00 34.942929 -119.690856 76 2150ft 0kts
04-Nov-23 22:01 34.942929 -119.690856 76 2150ft 0kts
04-Nov-23 22:02 34.942929 -119.690856 76 2150ft 0kts
04-Nov-23 22:03 34.942929 -119.690856 76 2150ft 0kts
04-Nov-23 22:04 34.942929 -119.690856 76 2150ft 0kts
04-Nov-23 22:05 34.942929 -119.690856 76 2150ft 0kts
04-Nov-23 22:06 34.942929 -119.690856 76 2150ft 0kts
04-Nov-23 22:07 34.942929 -119.690856 76 2150ft 0kts
04-Nov-23 22:08 34.942929 -119.690856 76 2150ft 0kts

Navigation Log

Ident Type
Flight plan parsing failed, navigation log unavailable